createdAt,value
2017-06-30T00:00:50.154Z,16
2017-06-30T00:01:48.870Z,15.9
2017-06-30T00:02:48.092Z,15.9
2017-06-30T00:03:47.309Z,15.9
2017-06-30T00:04:46.782Z,15.9
2017-06-30T00:05:45.639Z,15.9
2017-06-30T00:06:44.896Z,15.9
2017-06-30T00:07:44.616Z,15.9
2017-06-30T00:08:43.837Z,15.9
2017-06-30T00:09:43.051Z,15.9
2017-06-30T00:10:43.101Z,15.9
2017-06-30T00:11:41.335Z,15.9
2017-06-30T00:13:40.132Z,15.9
2017-06-30T00:14:39.353Z,15.9
2017-06-30T00:15:38.588Z,15.9
2017-06-30T00:16:38.102Z,15.9
2017-06-30T00:17:37.090Z,15.9
2017-06-30T00:18:36.187Z,15.9
2017-06-30T00:19:35.908Z,15.9
2017-06-30T00:20:35.139Z,15.9
2017-06-30T00:21:34.360Z,15.9
2017-06-30T00:22:33.834Z,15.8
2017-06-30T00:23:32.945Z,15.8
2017-06-30T00:24:32.173Z,15.8
2017-06-30T00:25:31.273Z,15.8
2017-06-30T00:26:30.464Z,15.8
2017-06-30T00:27:29.696Z,15.8
2017-06-30T00:28:29.675Z,15.8
2017-06-30T00:29:28.264Z,15.8
2017-06-30T00:31:26.891Z,15.8
2017-06-30T00:32:26.394Z,15.8
2017-06-30T00:33:25.608Z,15.8
2017-06-30T00:34:25.084Z,15.8
2017-06-30T00:36:23.185Z,15.8
2017-06-30T00:37:22.917Z,15.8
2017-06-30T00:38:22.130Z,15.8
2017-06-30T00:39:21.352Z,15.8
2017-06-30T00:40:20.864Z,15.7
2017-06-30T00:41:19.578Z,15.8
2017-06-30T00:42:19.305Z,15.7
2017-06-30T00:43:18.516Z,15.7
2017-06-30T00:44:18.318Z,15.7
2017-06-30T00:45:17.030Z,15.7
2017-06-30T00:46:16.513Z,15.7
2017-06-30T00:47:15.226Z,15.7
2017-06-30T00:49:14.214Z,15.7
2017-06-30T00:50:13.473Z,15.7
2017-06-30T00:51:12.690Z,15.7
2017-06-30T00:52:12.164Z,15.7
2017-06-30T00:53:11.137Z,15.7
2017-06-30T00:54:10.355Z,15.7
2017-06-30T00:55:09.571Z,15.7
2017-06-30T00:56:08.784Z,15.7
2017-06-30T00:57:07.996Z,15.7
2017-06-30T00:59:06.849Z,15.7
2017-06-30T01:00:05.949Z,15.7
2017-06-30T01:01:05.171Z,15.7
2017-06-30T01:02:04.178Z,15.7
2017-06-30T01:03:03.906Z,15.7
2017-06-30T01:04:03.125Z,15.7
2017-06-30T01:05:02.626Z,15.7
2017-06-30T01:06:01.612Z,15.7
2017-06-30T01:07:00.837Z,15.6
2017-06-30T01:08:00.056Z,15.7
2017-06-30T01:08:59.270Z,15.7
2017-06-30T01:09:58.619Z,15.7
2017-06-30T01:10:58.094Z,15.7
2017-06-30T01:11:57.234Z,15.6
2017-06-30T01:12:56.450Z,15.6
2017-06-30T01:13:55.657Z,15.7
2017-06-30T01:14:54.871Z,15.6
2017-06-30T01:15:25.283Z,15.6
2017-06-30T01:15:55.817Z,15.6
2017-06-30T01:16:26.423Z,15.6
2017-06-30T01:16:56.900Z,15.6
2017-06-30T01:17:27.437Z,15.6
2017-06-30T01:18:52.329Z,15.6
2017-06-30T01:19:51.542Z,15.7
2017-06-30T01:20:50.765Z,15.7
2017-06-30T01:21:50.246Z,15.6
2017-06-30T01:22:49.545Z,15.6
2017-06-30T01:23:48.260Z,15.6
2017-06-30T01:24:47.984Z,15.6
2017-06-30T01:25:47.216Z,15.6
2017-06-30T01:26:46.437Z,15.6
2017-06-30T01:27:45.910Z,15.5
2017-06-30T01:28:44.618Z,15.5
2017-06-30T01:29:44.217Z,15.5
2017-06-30T01:30:43.514Z,15.5
2017-06-30T01:31:42.736Z,15.4
2017-06-30T01:32:41.952Z,15.4
2017-06-30T01:33:41.449Z,15.5
2017-06-30T01:34:40.431Z,15.5
2017-06-30T01:35:39.534Z,15.4
2017-06-30T01:36:39.144Z,15.4
2017-06-30T01:37:10.152Z,15.4
2017-06-30T01:37:40.202Z,15.5
2017-06-30T01:38:10.733Z,15.5
2017-06-30T01:38:41.826Z,15.5
2017-06-30T01:39:11.612Z,15.5
2017-06-30T01:40:35.875Z,15.5
2017-06-30T01:41:35.093Z,15.4
2017-06-30T01:42:34.826Z,15.4
2017-06-30T01:44:33.567Z,15.4
2017-06-30T01:45:32.270Z,15.4
2017-06-30T01:46:31.493Z,15.4
2017-06-30T01:47:30.716Z,15.5
2017-06-30T01:48:30.429Z,15.5
2017-06-30T01:49:29.644Z,15.5
2017-06-30T01:50:29.041Z,15.4
2017-06-30T01:51:27.761Z,15.4
2017-06-30T01:52:27.491Z,15.4
2017-06-30T01:53:26.583Z,15.4
2017-06-30T01:54:25.797Z,15.4
2017-06-30T01:55:25.210Z,15.4
2017-06-30T01:55:55.984Z,15.4
2017-06-30T01:56:26.010Z,15.4
2017-06-30T01:56:57.113Z,15.4
2017-06-30T01:58:23.003Z,15.4
2017-06-30T01:59:22.212Z,15.4
2017-06-30T02:01:21.064Z,15.4
2017-06-30T02:02:19.764Z,15.4
2017-06-30T02:03:18.988Z,15.5
2017-06-30T02:04:18.717Z,15.5
2017-06-30T02:05:17.812Z,15.4
2017-06-30T02:06:17.033Z,15.5
2017-06-30T02:07:16.390Z,15.5
2017-06-30T02:08:15.614Z,15.5
2017-06-30T02:09:14.819Z,15.5
2017-06-30T02:11:13.430Z,15.6
2017-06-30T02:12:12.725Z,15.6
2017-06-30T02:13:12.210Z,15.6
2017-06-30T02:14:10.939Z,15.6
2017-06-30T02:15:10.151Z,15.5
2017-06-30T02:16:09.881Z,15.6
2017-06-30T02:17:09.102Z,15.6
2017-06-30T02:18:08.328Z,15.6
2017-06-30T02:19:07.809Z,15.6
2017-06-30T02:20:06.922Z,15.6
2017-06-30T02:21:06.030Z,15.6
2017-06-30T02:22:05.312Z,15.6
2017-06-30T02:23:04.413Z,15.6
2017-06-30T02:24:03.645Z,15.6
2017-06-30T02:25:02.893Z,15.6
2017-06-30T02:26:02.585Z,15.6
2017-06-30T02:27:01.810Z,15.6
2017-06-30T02:28:01.024Z,15.6
2017-06-30T02:29:00.130Z,15.6
2017-06-30T02:29:59.345Z,15.6
2017-06-30T02:30:58.851Z,15.6
2017-06-30T02:31:58.079Z,15.6
2017-06-30T02:32:57.293Z,15.7
2017-06-30T02:33:56.508Z,15.6
2017-06-30T02:34:55.725Z,15.6
2017-06-30T02:35:54.967Z,15.6
2017-06-30T02:36:54.446Z,15.7
2017-06-30T02:37:53.733Z,15.7
2017-06-30T02:38:52.995Z,15.7
2017-06-30T02:39:52.219Z,15.7
2017-06-30T02:40:51.432Z,15.7
2017-06-30T02:41:50.656Z,15.7
2017-06-30T02:42:50.172Z,15.6
2017-06-30T02:43:49.391Z,15.7
2017-06-30T02:44:48.623Z,15.7
2017-06-30T02:45:47.859Z,15.6
2017-06-30T02:46:46.976Z,15.6
2017-06-30T02:47:46.195Z,15.6
2017-06-30T02:48:45.729Z,15.6
2017-06-30T02:49:44.954Z,15.7
2017-06-30T02:50:44.007Z,15.6
2017-06-30T02:51:43.207Z,15.6
2017-06-30T02:52:42.412Z,15.6
2017-06-30T02:53:41.620Z,15.6
2017-06-30T02:54:41.589Z,15.6
2017-06-30T02:55:40.356Z,15.6
2017-06-30T02:56:39.559Z,15.6
2017-06-30T02:57:38.761Z,15.6
2017-06-30T02:58:37.978Z,15.6
2017-06-30T02:59:37.192Z,15.5
2017-06-30T03:00:37.159Z,15.5
2017-06-30T03:01:35.747Z,15.5
2017-06-30T03:02:35.457Z,15.6
2017-06-30T03:03:34.545Z,15.5
2017-06-30T03:04:33.940Z,15.5
2017-06-30T03:05:33.145Z,15.6
2017-06-30T03:06:32.615Z,15.5
2017-06-30T03:07:31.819Z,15.6
2017-06-30T03:08:30.909Z,15.6
2017-06-30T03:09:30.258Z,15.6
2017-06-30T03:10:29.463Z,15.6
2017-06-30T03:11:28.681Z,15.6
2017-06-30T03:12:28.146Z,15.5
2017-06-30T03:13:27.111Z,15.5
2017-06-30T03:14:26.315Z,15.6
2017-06-30T03:15:25.908Z,15.6
2017-06-30T03:16:25.118Z,15.5
2017-06-30T03:17:24.189Z,15.6
2017-06-30T03:18:23.640Z,15.6
2017-06-30T03:19:22.886Z,15.5
2017-06-30T03:20:22.103Z,15.6
2017-06-30T03:21:21.313Z,15.6
2017-06-30T03:23:20.483Z,15.6
2017-06-30T03:24:19.511Z,15.6
2017-06-30T03:25:18.219Z,15.6
2017-06-30T03:26:17.426Z,15.6
2017-06-30T03:27:16.705Z,15.6
2017-06-30T03:28:16.411Z,15.6
2017-06-30T03:29:15.609Z,15.6
2017-06-30T03:30:15.035Z,15.6
2017-06-30T03:31:13.733Z,15.6
2017-06-30T03:32:13.448Z,15.6
2017-06-30T03:34:11.908Z,15.6
2017-06-30T03:35:11.117Z,15.6
2017-06-30T03:36:10.561Z,15.6
2017-06-30T03:37:09.777Z,15.6
2017-06-30T03:38:08.751Z,15.6
2017-06-30T03:39:08.237Z,15.6
2017-06-30T03:40:07.451Z,15.6
2017-06-30T03:41:06.576Z,15.6
2017-06-30T03:42:06.035Z,15.6
2017-06-30T03:43:05.250Z,15.6
2017-06-30T03:44:04.343Z,15.6
2017-06-30T03:45:03.540Z,15.6
2017-06-30T03:46:03.162Z,15.6
2017-06-30T03:47:02.299Z,15.6
2017-06-30T03:48:01.648Z,15.6
2017-06-30T03:49:00.867Z,15.6
2017-06-30T03:50:00.138Z,15.7
2017-06-30T03:50:59.339Z,15.6
2017-06-30T03:51:58.639Z,15.6
2017-06-30T03:52:57.769Z,15.6
2017-06-30T03:53:57.274Z,15.6
2017-06-30T03:54:27.285Z,15.6
2017-06-30T03:54:57.806Z,15.7
2017-06-30T03:55:28.380Z,15.7
2017-06-30T03:56:55.164Z,15.7
2017-06-30T03:57:54.377Z,15.6
2017-06-30T03:58:53.467Z,15.6
2017-06-30T03:59:52.965Z,15.7
2017-06-30T04:01:51.060Z,15.7
2017-06-30T04:02:50.779Z,15.7
2017-06-30T04:03:49.983Z,15.7
2017-06-30T04:04:49.198Z,15.7
2017-06-30T04:05:48.758Z,15.7
2017-06-30T04:06:47.460Z,15.7
2017-06-30T04:07:46.679Z,15.6
2017-06-30T04:08:46.421Z,15.6
2017-06-30T04:09:45.629Z,15.6
2017-06-30T04:10:44.846Z,15.6
2017-06-30T04:11:44.318Z,15.6
2017-06-30T04:12:43.016Z,15.6
2017-06-30T04:13:42.732Z,15.6
2017-06-30T04:14:41.876Z,15.6
2017-06-30T04:15:12.464Z,15.6
2017-06-30T04:15:42.880Z,15.6
2017-06-30T04:16:40.650Z,15.6
2017-06-30T04:17:39.605Z,15.6
2017-06-30T04:18:38.816Z,15.6
2017-06-30T04:19:38.014Z,15.6
2017-06-30T04:20:37.217Z,15.6
2017-06-30T04:21:36.418Z,15.6
2017-06-30T04:22:36.130Z,15.6
2017-06-30T04:24:34.594Z,15.6
2017-06-30T04:25:33.799Z,15.6
2017-06-30T04:26:33.006Z,15.6
2017-06-30T04:27:32.194Z,15.6
2017-06-30T04:28:31.393Z,15.6
2017-06-30T04:29:30.598Z,15.6
2017-06-30T04:30:29.939Z,15.6
2017-06-30T04:31:29.155Z,15.6
2017-06-30T04:32:28.364Z,15.6
2017-06-30T04:33:27.951Z,15.6
2017-06-30T04:34:27.754Z,15.6
2017-06-30T04:35:26.522Z,15.6
2017-06-30T04:36:25.990Z,15.6
2017-06-30T04:37:24.689Z,15.6
2017-06-30T04:38:24.400Z,15.6
2017-06-30T04:39:23.615Z,15.7
2017-06-30T04:40:22.698Z,15.6
2017-06-30T04:41:22.161Z,15.7
2017-06-30T04:42:21.617Z,15.7
2017-06-30T04:43:20.077Z,15.7
2017-06-30T04:44:19.788Z,15.7
2017-06-30T04:45:18.990Z,15.7
2017-06-30T04:46:18.257Z,15.7
2017-06-30T04:47:17.470Z,15.7
2017-06-30T04:48:17.306Z,15.7
2017-06-30T04:49:16.277Z,15.7
2017-06-30T04:50:15.365Z,15.7
2017-06-30T04:51:14.452Z,15.7
2017-06-30T04:52:14.167Z,15.7
2017-06-30T04:53:13.372Z,15.7
2017-06-30T04:54:12.843Z,15.7
2017-06-30T04:55:11.541Z,15.7
2017-06-30T04:56:11.246Z,15.8
2017-06-30T04:57:10.450Z,15.8
2017-06-30T04:58:10.233Z,15.8
2017-06-30T04:59:08.833Z,15.8
2017-06-30T05:00:08.307Z,15.8
2017-06-30T05:01:07.161Z,15.8
2017-06-30T05:02:06.878Z,15.8
2017-06-30T05:03:06.088Z,15.8
2017-06-30T05:04:05.170Z,15.8
2017-06-30T05:05:04.366Z,15.8
2017-06-30T05:06:03.819Z,15.8
2017-06-30T05:07:03.027Z,15.8
2017-06-30T05:08:02.500Z,15.8
2017-06-30T05:09:01.724Z,15.8
2017-06-30T05:10:00.966Z,15.8
2017-06-30T05:11:00.049Z,15.8
2017-06-30T05:11:59.519Z,15.8
2017-06-30T05:12:58.726Z,15.8
2017-06-30T05:14:57.204Z,15.8
2017-06-30T05:15:56.407Z,15.8
2017-06-30T05:16:55.620Z,15.8
2017-06-30T05:17:54.824Z,15.8
2017-06-30T05:18:54.411Z,15.8
2017-06-30T05:19:53.617Z,15.8
2017-06-30T05:20:52.820Z,15.8
2017-06-30T05:21:52.027Z,15.8
2017-06-30T05:22:51.225Z,15.8
2017-06-30T05:23:50.697Z,15.8
2017-06-30T05:24:49.898Z,15.8
2017-06-30T05:25:49.102Z,15.9
2017-06-30T05:26:48.304Z,15.8
2017-06-30T05:27:47.903Z,15.9
2017-06-30T05:28:46.869Z,15.8
2017-06-30T05:29:46.326Z,15.8
2017-06-30T05:30:45.607Z,15.8
2017-06-30T05:31:16.010Z,15.8
2017-06-30T05:32:43.904Z,15.9
2017-06-30T05:33:43.500Z,15.9
2017-06-30T05:34:42.712Z,15.9
2017-06-30T05:35:42.057Z,15.9
2017-06-30T05:37:40.146Z,15.9
2017-06-30T05:38:39.854Z,15.9
2017-06-30T05:39:39.067Z,15.9
2017-06-30T05:40:38.148Z,16
2017-06-30T05:41:37.603Z,16
2017-06-30T05:42:36.806Z,16
2017-06-30T05:43:36.020Z,16
2017-06-30T05:44:35.224Z,16
2017-06-30T05:45:34.427Z,16
2017-06-30T05:46:33.632Z,16
2017-06-30T05:47:33.587Z,16.1
2017-06-30T05:48:32.287Z,16
2017-06-30T05:49:31.556Z,16.1
2017-06-30T05:50:30.788Z,16.1
2017-06-30T05:51:29.990Z,16.1
2017-06-30T05:52:29.579Z,16.1
2017-06-30T05:53:28.795Z,16.1
2017-06-30T05:54:27.892Z,16.2
2017-06-30T05:55:27.101Z,16.2
2017-06-30T05:56:26.693Z,16.2
2017-06-30T05:58:25.287Z,16.2
2017-06-30T05:59:24.748Z,16.2
2017-06-30T06:00:23.852Z,16.2
2017-06-30T06:01:23.071Z,16.2
2017-06-30T06:02:22.279Z,16.3
2017-06-30T06:03:21.491Z,16.3
2017-06-30T06:04:20.695Z,16.3
2017-06-30T06:05:20.143Z,16.3
2017-06-30T06:06:19.419Z,16.3
2017-06-30T06:07:18.614Z,16.3
2017-06-30T06:08:17.821Z,16.3
2017-06-30T06:09:17.025Z,16.3
2017-06-30T06:10:16.508Z,16.3
2017-06-30T06:11:15.960Z,16.3
2017-06-30T06:12:14.926Z,16.3
2017-06-30T06:13:14.694Z,16.3
2017-06-30T06:14:13.386Z,16.3
2017-06-30T06:15:12.971Z,16.3
2017-06-30T06:16:12.188Z,16.3
2017-06-30T06:17:11.645Z,16.3
2017-06-30T06:18:10.849Z,16.3
2017-06-30T06:19:10.056Z,16.3
2017-06-30T06:20:09.327Z,16.3
2017-06-30T06:21:08.534Z,16.3
2017-06-30T06:22:07.743Z,16.3
2017-06-30T06:23:07.199Z,16.3
2017-06-30T06:24:06.401Z,16.3
2017-06-30T06:25:05.487Z,16.4
2017-06-30T06:26:04.690Z,16.4
2017-06-30T06:27:04.287Z,16.4
2017-06-30T06:28:03.496Z,16.4
2017-06-30T06:29:02.963Z,16.4
2017-06-30T06:30:02.166Z,16.4
2017-06-30T06:31:01.498Z,16.3
2017-06-30T06:32:00.478Z,16.3
2017-06-30T06:32:59.748Z,16.3
2017-06-30T06:33:59.357Z,16.4
2017-06-30T06:34:58.814Z,16.4
2017-06-30T06:35:57.501Z,16.3
2017-06-30T06:36:57.209Z,16.4
2017-06-30T06:37:56.292Z,16.4
2017-06-30T06:38:55.491Z,16.4
2017-06-30T06:39:55.085Z,16.4
2017-06-30T06:40:25.621Z,16.4
2017-06-30T06:40:55.648Z,16.4
2017-06-30T06:41:26.056Z,16.4
2017-06-30T06:42:52.940Z,16.4
2017-06-30T06:43:52.226Z,16.4
2017-06-30T06:44:51.466Z,16.4
2017-06-30T06:45:50.949Z,16.4
2017-06-30T06:46:50.029Z,16.4
2017-06-30T06:47:49.104Z,16.5
2017-06-30T06:48:48.190Z,16.5
2017-06-30T06:49:47.898Z,16.5
2017-06-30T06:50:46.866Z,16.5
2017-06-30T06:51:46.316Z,16.5
2017-06-30T06:52:45.404Z,16.5
2017-06-30T06:53:44.754Z,16.5
2017-06-30T06:55:43.607Z,16.6
2017-06-30T06:56:42.871Z,16.6
2017-06-30T06:57:42.204Z,16.6
2017-06-30T06:58:41.424Z,16.6
2017-06-30T06:59:40.585Z,16.6
2017-06-30T07:00:39.787Z,16.6
2017-06-30T07:01:39.571Z,16.6
2017-06-30T07:02:38.276Z,16.6
2017-06-30T07:03:37.750Z,16.6
2017-06-30T07:05:36.350Z,16.7
2017-06-30T07:06:35.567Z,16.7
2017-06-30T07:07:34.659Z,16.7
2017-06-30T07:08:34.361Z,16.8
2017-06-30T07:09:33.697Z,16.8
2017-06-30T07:10:32.799Z,16.8
2017-06-30T07:11:31.900Z,16.8
2017-06-30T07:12:31.115Z,16.8
2017-06-30T07:13:30.699Z,16.8
2017-06-30T07:14:29.902Z,16.8
2017-06-30T07:15:29.254Z,16.8
2017-06-30T07:16:28.336Z,16.9
2017-06-30T07:17:27.541Z,16.9
2017-06-30T07:18:27.031Z,16.9
2017-06-30T07:19:26.241Z,16.9
2017-06-30T07:20:25.448Z,16.9
2017-06-30T07:21:25.411Z,16.9
2017-06-30T07:22:24.122Z,16.9
2017-06-30T07:23:23.325Z,16.8
2017-06-30T07:24:22.420Z,16.8
2017-06-30T07:25:22.009Z,16.8
2017-06-30T07:26:21.208Z,16.8
2017-06-30T07:27:20.744Z,16.8
2017-06-30T07:28:19.943Z,16.8
2017-06-30T07:29:19.156Z,16.7
2017-06-30T07:30:18.367Z,16.8
2017-06-30T07:31:18.083Z,16.8
2017-06-30T07:32:17.288Z,16.7
2017-06-30T07:33:16.615Z,16.7
2017-06-30T07:34:15.822Z,16.7
2017-06-30T07:35:15.081Z,16.7
2017-06-30T07:36:14.288Z,16.7
2017-06-30T07:37:13.498Z,16.7
2017-06-30T07:38:12.700Z,16.7
2017-06-30T07:39:12.554Z,16.7
2017-06-30T07:40:11.268Z,16.7
2017-06-30T07:41:10.982Z,16.7
2017-06-30T07:42:10.197Z,16.7
2017-06-30T07:43:09.405Z,16.7
2017-06-30T07:44:08.608Z,16.7
2017-06-30T07:45:08.068Z,16.7
2017-06-30T07:46:07.270Z,16.7
2017-06-30T07:47:06.358Z,16.7
2017-06-30T07:48:05.714Z,16.7
2017-06-30T07:49:04.921Z,16.7
2017-06-30T07:50:04.212Z,16.7
2017-06-30T07:51:04.042Z,16.7
2017-06-30T07:52:03.253Z,16.7
2017-06-30T07:54:01.346Z,16.7
2017-06-30T07:55:01.049Z,16.7
2017-06-30T07:56:00.131Z,16.7
2017-06-30T07:56:59.540Z,16.7
2017-06-30T07:57:58.633Z,16.7
2017-06-30T07:58:58.226Z,16.7
2017-06-30T07:59:57.430Z,16.8
2017-06-30T08:00:56.673Z,16.8
2017-06-30T08:01:55.877Z,16.8
2017-06-30T08:02:55.406Z,16.8
2017-06-30T08:03:54.606Z,16.8
2017-06-30T08:04:25.702Z,16.8
2017-06-30T08:04:55.708Z,16.9
2017-06-30T08:05:52.908Z,16.9
2017-06-30T08:06:52.180Z,16.9
2017-06-30T08:07:51.902Z,16.9
2017-06-30T08:08:51.369Z,16.9
2017-06-30T08:09:50.523Z,16.8
2017-06-30T08:10:49.733Z,16.8
2017-06-30T08:11:48.938Z,16.8
2017-06-30T08:12:48.144Z,16.8
2017-06-30T08:13:47.355Z,16.9
2017-06-30T08:14:46.814Z,16.9
2017-06-30T08:15:46.664Z,16.9
2017-06-30T08:16:45.372Z,16.9
2017-06-30T08:17:44.591Z,16.9
2017-06-30T08:18:43.801Z,16.9
2017-06-30T08:19:43.078Z,16.9
2017-06-30T08:20:42.538Z,16.9
2017-06-30T08:21:41.739Z,16.9
2017-06-30T08:22:40.935Z,16.9
2017-06-30T08:23:40.567Z,17
2017-06-30T08:24:39.651Z,17
2017-06-30T08:25:38.729Z,17
2017-06-30T08:26:38.571Z,17
2017-06-30T08:27:37.773Z,17
2017-06-30T08:28:36.986Z,17
2017-06-30T08:29:36.257Z,17
2017-06-30T08:30:35.464Z,17.1
2017-06-30T08:31:34.670Z,17
2017-06-30T08:32:34.142Z,17.1
2017-06-30T08:33:33.912Z,17.1
2017-06-30T08:34:32.618Z,17.2
2017-06-30T08:36:31.043Z,17.3
2017-06-30T08:37:30.770Z,17.3
2017-06-30T08:38:30.113Z,17.3
2017-06-30T08:39:29.197Z,17.3
2017-06-30T08:40:28.286Z,17.3
2017-06-30T08:41:27.265Z,17.4
2017-06-30T08:42:26.985Z,17.4
2017-06-30T08:43:26.252Z,17.4
2017-06-30T08:44:25.723Z,17.5
2017-06-30T08:45:24.687Z,17.5
2017-06-30T08:46:24.270Z,17.6
2017-06-30T08:47:23.476Z,17.6
2017-06-30T08:48:22.681Z,17.7
2017-06-30T08:49:21.921Z,17.8
2017-06-30T08:50:21.887Z,17.8
2017-06-30T08:51:20.652Z,17.9
2017-06-30T08:52:19.865Z,17.9
2017-06-30T08:53:20.141Z,18
2017-06-30T08:54:18.727Z,18
2017-06-30T08:55:17.937Z,18
2017-06-30T08:56:17.276Z,18
2017-06-30T08:57:16.388Z,18
2017-06-30T08:58:16.035Z,18.1
2017-06-30T08:59:15.158Z,18.1
2017-06-30T08:59:45.677Z,18.1
2017-06-30T09:00:16.207Z,18.1
2017-06-30T09:00:46.496Z,18.1
2017-06-30T09:02:13.143Z,18.1
2017-06-30T09:03:12.237Z,18.1
2017-06-30T09:04:11.967Z,18.1
2017-06-30T09:05:11.176Z,18
2017-06-30T09:06:10.437Z,18
2017-06-30T09:07:09.700Z,17.9
2017-06-30T09:08:09.174Z,17.9
2017-06-30T09:09:08.387Z,17.9
2017-06-30T09:10:07.595Z,17.9
2017-06-30T09:11:06.680Z,17.9
2017-06-30T09:12:06.727Z,17.9
2017-06-30T09:13:05.630Z,18
2017-06-30T09:14:05.094Z,18
2017-06-30T09:15:04.254Z,17.9
2017-06-30T09:16:03.416Z,17.9
2017-06-30T09:17:02.587Z,17.9
2017-06-30T09:18:02.072Z,17.9
2017-06-30T09:19:01.254Z,17.9
2017-06-30T09:20:01.135Z,17.9
2017-06-30T09:20:59.851Z,17.9
2017-06-30T09:21:59.452Z,18
2017-06-30T09:22:58.996Z,17.9
2017-06-30T09:24:57.485Z,17.9
2017-06-30T09:25:56.940Z,17.8
2017-06-30T09:26:56.154Z,17.8
2017-06-30T09:27:55.243Z,17.8
2017-06-30T09:28:54.463Z,17.8
2017-06-30T09:29:54.242Z,17.8
2017-06-30T09:30:52.942Z,17.8
2017-06-30T09:31:52.814Z,17.8
2017-06-30T09:32:52.027Z,17.8
2017-06-30T09:33:51.120Z,17.7
2017-06-30T09:34:50.790Z,17.7
2017-06-30T09:35:49.867Z,17.7
2017-06-30T09:36:49.072Z,17.7
2017-06-30T09:37:49.258Z,17.7
2017-06-30T09:38:47.468Z,17.7
2017-06-30T09:39:47.065Z,17.7
2017-06-30T09:40:17.574Z,17.7
2017-06-30T09:41:45.851Z,17.8
2017-06-30T09:42:45.072Z,17.8
2017-06-30T09:43:44.531Z,17.8
2017-06-30T09:45:43.125Z,17.8
2017-06-30T09:46:42.328Z,17.9
2017-06-30T09:47:41.420Z,17.9
2017-06-30T09:48:40.628Z,17.9
2017-06-30T09:49:40.522Z,18
2017-06-30T09:50:39.228Z,18
2017-06-30T09:51:38.936Z,18
2017-06-30T09:52:38.131Z,18
2017-06-30T09:53:37.347Z,18
2017-06-30T09:54:36.549Z,18
2017-06-30T09:55:36.079Z,18
2017-06-30T09:56:35.040Z,18
2017-06-30T09:57:34.697Z,18
2017-06-30T09:59:33.282Z,18
2017-06-30T10:00:32.629Z,18
2017-06-30T10:01:32.138Z,18
2017-06-30T10:02:31.355Z,17.9
2017-06-30T10:03:30.640Z,17.9
2017-06-30T10:04:30.450Z,17.9
2017-06-30T10:05:29.145Z,18
2017-06-30T10:06:28.361Z,17.9
2017-06-30T10:07:28.220Z,17.9
2017-06-30T10:08:26.934Z,17.9
2017-06-30T10:09:26.646Z,17.9
2017-06-30T10:10:25.861Z,18
2017-06-30T10:11:25.323Z,18
2017-06-30T10:12:24.413Z,18
2017-06-30T10:13:23.767Z,18
2017-06-30T10:14:23.232Z,18
2017-06-30T10:15:22.426Z,18
2017-06-30T10:16:21.638Z,18
2017-06-30T10:17:20.839Z,18
2017-06-30T10:19:19.683Z,18.2
2017-06-30T10:20:18.890Z,18.2
2017-06-30T10:21:18.368Z,18.2
2017-06-30T10:22:17.710Z,18.2
2017-06-30T10:24:16.302Z,18.3
2017-06-30T10:25:15.768Z,18.4
2017-06-30T10:26:14.973Z,18.5
2017-06-30T10:27:14.190Z,18.6
2017-06-30T10:28:13.415Z,18.7
2017-06-30T10:29:12.632Z,18.8
2017-06-30T10:30:12.341Z,18.9
2017-06-30T10:31:11.816Z,19
2017-06-30T10:32:10.534Z,19.2
2017-06-30T10:33:10.252Z,19.2
2017-06-30T10:34:09.227Z,19.3
2017-06-30T10:35:08.688Z,19.3
2017-06-30T10:36:07.898Z,19.3
2017-06-30T10:37:07.861Z,19.2
2017-06-30T10:38:06.549Z,19.1
2017-06-30T10:39:06.018Z,19.1
2017-06-30T10:40:05.096Z,19.2
2017-06-30T10:41:04.810Z,19.2
2017-06-30T10:42:03.898Z,19.3
2017-06-30T10:43:03.739Z,19.3
2017-06-30T10:44:02.937Z,19.4
2017-06-30T10:45:02.137Z,19.5
2017-06-30T10:46:02.066Z,19.6
2017-06-30T10:47:00.774Z,19.6
2017-06-30T10:48:00.005Z,19.6
2017-06-30T10:48:59.470Z,19.7
2017-06-30T10:49:58.556Z,19.7
2017-06-30T10:50:58.264Z,19.7
2017-06-30T10:51:57.478Z,19.8
2017-06-30T10:52:56.961Z,19.8
2017-06-30T10:53:56.065Z,19.8
2017-06-30T10:54:55.528Z,19.8
2017-06-30T10:55:54.607Z,19.8
2017-06-30T10:56:54.324Z,19.8
2017-06-30T10:57:53.534Z,19.8
2017-06-30T10:58:52.730Z,19.8
2017-06-30T10:59:52.332Z,19.9
2017-06-30T11:01:51.074Z,20.1
2017-06-30T11:02:50.152Z,20
2017-06-30T11:03:49.242Z,20.1
2017-06-30T11:04:49.115Z,20.2
2017-06-30T11:05:48.331Z,20.3
2017-06-30T11:06:47.437Z,20.3
2017-06-30T11:07:47.398Z,20.1
2017-06-30T11:08:46.109Z,19.9
2017-06-30T11:10:45.203Z,19.7
2017-06-30T11:11:44.407Z,19.7
2017-06-30T11:12:43.624Z,19.7
2017-06-30T11:13:43.023Z,19.5
2017-06-30T11:14:42.227Z,19.4
2017-06-30T11:15:41.707Z,19.5
2017-06-30T11:16:41.293Z,19.5
2017-06-30T11:17:40.375Z,19.4
2017-06-30T11:18:39.855Z,19.4
2017-06-30T11:19:10.897Z,19.4
2017-06-30T11:20:38.792Z,19.5
2017-06-30T11:21:37.901Z,19.5
2017-06-30T11:22:37.112Z,19.5
2017-06-30T11:23:36.857Z,19.6
2017-06-30T11:24:36.324Z,19.5
2017-06-30T11:25:35.522Z,19.6
2017-06-30T11:26:34.731Z,19.6
2017-06-30T11:27:33.933Z,19.5
2017-06-30T11:28:34.208Z,19.6
2017-06-30T11:29:32.917Z,19.7
2017-06-30T11:30:32.383Z,19.9
2017-06-30T11:31:31.598Z,20
2017-06-30T11:32:30.700Z,20
2017-06-30T11:33:30.400Z,20
2017-06-30T11:34:29.482Z,20.1
2017-06-30T11:35:28.718Z,20.2
2017-06-30T11:36:28.260Z,20.2
2017-06-30T11:37:27.351Z,20.1
2017-06-30T11:38:26.938Z,20
2017-06-30T11:39:26.152Z,19.9
2017-06-30T11:40:25.805Z,19.8
2017-06-30T11:41:25.011Z,19.7
2017-06-30T11:42:24.848Z,19.7
2017-06-30T11:43:23.465Z,19.6
2017-06-30T11:44:23.180Z,19.6
2017-06-30T11:45:22.401Z,19.5
2017-06-30T11:46:21.599Z,19.5
2017-06-30T11:47:21.187Z,19.4
2017-06-30T11:48:20.655Z,19.3
2017-06-30T11:49:19.749Z,19.3
2017-06-30T11:50:19.387Z,19.2
2017-06-30T11:51:18.603Z,19.3
2017-06-30T11:52:17.820Z,19.3
2017-06-30T11:53:17.469Z,19.3
2017-06-30T11:54:16.914Z,19.3
2017-06-30T11:55:16.127Z,19.3
2017-06-30T11:56:15.331Z,19.4
2017-06-30T11:57:14.528Z,19.4
2017-06-30T11:58:14.236Z,19.3
2017-06-30T11:59:13.238Z,19.3
2017-06-30T12:00:12.977Z,19.3
2017-06-30T12:01:12.452Z,19.3
2017-06-30T12:01:42.963Z,19.3
2017-06-30T12:03:10.801Z,19.5
2017-06-30T12:05:09.410Z,19.6
2017-06-30T12:06:09.137Z,19.6
2017-06-30T12:07:08.234Z,19.7
2017-06-30T12:08:08.543Z,19.7
2017-06-30T12:09:07.124Z,19.8
2017-06-30T12:10:06.327Z,19.9
2017-06-30T12:11:05.984Z,19.9
2017-06-30T12:12:05.636Z,19.9
2017-06-30T12:13:04.334Z,19.9
2017-06-30T12:14:04.501Z,19.9
2017-06-30T12:15:03.092Z,19.9
2017-06-30T12:16:02.787Z,19.9
2017-06-30T12:17:02.006Z,19.9
2017-06-30T12:18:01.341Z,19.9
2017-06-30T12:19:00.539Z,19.9
2017-06-30T12:19:59.826Z,20
2017-06-30T12:20:59.533Z,20.1
2017-06-30T12:21:58.751Z,20.3
2017-06-30T12:22:57.947Z,20.4
2017-06-30T12:24:57.225Z,20.7
2017-06-30T12:25:55.928Z,20.7
2017-06-30T12:26:55.640Z,20.6
2017-06-30T12:27:54.721Z,20.7
2017-06-30T12:30:53.464Z,21.1
2017-06-30T12:31:52.733Z,21.1
2017-06-30T12:32:51.938Z,21
2017-06-30T12:33:51.160Z,21.1
2017-06-30T12:34:50.442Z,21
2017-06-30T12:35:49.658Z,21
2017-06-30T12:36:49.629Z,21.1
2017-06-30T12:37:48.847Z,21.3
2017-06-30T12:38:48.064Z,21.2
2017-06-30T12:39:47.153Z,21.1
2017-06-30T12:40:46.815Z,21.1
2017-06-30T12:41:46.083Z,21.1
2017-06-30T12:42:45.556Z,21.2
2017-06-30T12:43:44.685Z,21.2
2017-06-30T12:44:44.460Z,21.2
2017-06-30T12:45:43.549Z,21.4
2017-06-30T12:46:43.268Z,21.2
2017-06-30T12:47:42.509Z,21.1
2017-06-30T12:48:41.959Z,21.1
2017-06-30T12:49:41.201Z,21
2017-06-30T12:50:40.812Z,21
2017-06-30T12:51:39.902Z,20.8
2017-06-30T12:52:38.988Z,20.8
2017-06-30T12:53:38.706Z,20.9
2017-06-30T12:54:38.155Z,20.9
2017-06-30T12:55:37.342Z,21
2017-06-30T12:56:37.118Z,20.9
2017-06-30T12:57:36.328Z,20.9
2017-06-30T12:58:35.541Z,20.9
2017-06-30T12:59:35.135Z,20.8
2017-06-30T13:00:35.430Z,20.8
2017-06-30T13:01:33.607Z,20.7
2017-06-30T13:02:33.323Z,20.6
2017-06-30T13:03:32.524Z,20.6
2017-06-30T13:04:31.731Z,20.5
2017-06-30T13:05:31.317Z,20.5
2017-06-30T13:06:31.040Z,20.6
2017-06-30T13:07:30.116Z,20.6
2017-06-30T13:08:29.330Z,20.7
2017-06-30T13:09:29.078Z,20.8
2017-06-30T13:10:28.728Z,20.9
2017-06-30T13:11:27.434Z,20.9
2017-06-30T13:11:58.215Z,20.9
2017-06-30T13:12:28.502Z,20.9
2017-06-30T13:12:59.089Z,20.9
2017-06-30T13:16:24.767Z,21.4
2017-06-30T13:17:24.236Z,21.5
2017-06-30T13:18:23.447Z,21.5
2017-06-30T13:19:22.534Z,21.4
2017-06-30T13:20:22.246Z,21.4
2017-06-30T13:21:21.407Z,21.3
2017-06-30T13:22:21.127Z,21.3
2017-06-30T13:23:20.458Z,21.3
2017-06-30T13:24:19.669Z,21.3
2017-06-30T13:25:18.882Z,21.3
2017-06-30T13:26:18.598Z,21.4
2017-06-30T13:27:18.072Z,21.5
2017-06-30T13:28:17.895Z,21.4
2017-06-30T13:29:16.886Z,21.2
2017-06-30T13:30:16.087Z,21.2
2017-06-30T13:31:15.184Z,21.3
2017-06-30T13:32:14.899Z,21.3
2017-06-30T13:33:14.485Z,21.6
2017-06-30T13:34:13.693Z,21.5